Time;durP1;ratioP1;P1;durP2;ratioP2;P2;SDS_P1;SDS_P2;PMS_P1;PMS_P2;Temp;Humidity;BMP_temperature;BMP_pressure;BME280_temperature;BME280_humidity;BME280_pressure;Samples;Min_cycle;Max_cycle;Signal;HPM_P1;HPM_P2
2022/10/05 00:00:19;;;;;;;6.57;4.70;;;13.30;99.90;;;;;;5074466;28;20388;-50
2022/10/05 00:02:47;;;;;;;8.80;4.97;;;13.30;99.90;;;;;;5073567;28;20056;-49
2022/10/05 00:05:19;;;;;;;8.68;4.28;;;13.20;99.90;;;;;;5073441;28;20025;-50
2022/10/05 00:07:44;;;;;;;;;;;13.20;99.90;;;;;;5074517;28;20530;-50
2022/10/05 00:10:15;;;;;;;6.93;5.15;;;13.10;99.90;;;;;;5074052;28;19908;-51
2022/10/05 00:12:44;;;;;;;7.95;5.30;;;13.00;99.90;;;;;;5074107;28;20017;-52
2022/10/05 00:15:13;;;;;;;8.57;6.78;;;13.00;99.90;;;;;;5072914;28;20032;-50
2022/10/05 00:17:41;;;;;;;9.25;5.72;;;12.90;99.90;;;;;;5073858;28;20507;-49
2022/10/05 00:20:24;;;;;;;7.90;5.22;;;12.80;99.90;;;;;;5073568;28;20039;-52
2022/10/05 00:23:06;;;;;;;8.10;5.55;;;12.70;99.90;;;;;;5071197;28;20040;-51
2022/10/05 00:25:34;;;;;;;7.53;4.38;;;12.70;99.90;;;;;;5073150;28;20542;-51
2022/10/05 00:28:00;;;;;;;8.05;4.70;;;12.60;99.90;;;;;;5071442;28;20116;-52
2022/10/05 00:30:32;;;;;;;7.47;4.88;;;12.60;99.90;;;;;;5073402;28;20430;-51
2022/10/05 00:32:58;;;;;;;5.47;4.53;;;12.70;99.90;;;;;;5073711;28;20028;-51
2022/10/05 00:35:28;;;;;;;7.13;4.40;;;12.70;99.90;;;;;;5073089;28;20411;-52
2022/10/05 00:37:54;;;;;;;6.93;4.30;;;12.70;99.90;;;;;;5070164;28;20031;-52
2022/10/05 00:40:52;;;;;;;7.15;4.10;;;12.70;99.90;;;;;;5030180;28;20033;-50
2022/10/05 00:43:29;;;;;;;8.10;4.40;;;12.70;99.90;;;;;;5072441;28;20496;-50
2022/10/05 00:46:06;;;;;;;9.38;3.85;;;12.70;99.90;;;;;;5073227;28;20076;-50
2022/10/05 00:48:47;;;;;;;7.95;4.38;;;12.60;99.90;;;;;;5072710;28;20039;-51
2022/10/05 00:51:31;;;;;;;7.80;4.28;;;12.70;99.90;;;;;;5073099;28;20460;-53
2022/10/05 00:54:26;;;;;;;13.85;4.75;;;12.70;99.90;;;;;;5069979;28;20028;-52
2022/10/05 00:57:35;;;;;;;7.13;4.53;;;12.70;99.90;;;;;;5071237;28;20030;-50
2022/10/05 01:00:11;;;;;;;9.70;4.50;;;12.60;99.90;;;;;;5070792;28;20028;-52
2022/10/05 01:03:01;;;;;;;6.35;4.07;;;12.60;99.90;;;;;;5067292;28;20094;-52
2022/10/05 01:05:54;;;;;;;10.70;6.57;;;12.60;99.90;;;;;;5072962;28;20024;-50
2022/10/05 01:08:39;;;;;;;10.32;7.43;;;12.60;99.90;;;;;;5050239;28;20040;-51
2022/10/05 01:11:28;;;;;;;7.63;4.78;;;12.60;99.90;;;;;;5071060;28;20107;-52
2022/10/05 01:14:23;;;;;;;6.03;3.97;;;12.60;99.90;;;;;;5073255;28;20020;-51
2022/10/05 01:17:02;;;;;;;7.45;4.15;;;12.50;99.90;;;;;;5050356;28;20373;-51
2022/10/05 01:19:55;;;;;;;7.35;4.25;;;12.50;99.90;;;;;;5066212;28;20028;-50
2022/10/05 01:22:39;;;;;;;9.70;4.30;;;12.50;99.90;;;;;;5069721;28;20119;-51
2022/10/05 01:25:19;;;;;;;5.85;4.13;;;12.50;99.90;;;;;;5071146;28;20426;-52
2022/10/05 01:28:05;;;;;;;5.35;4.18;;;12.50;99.90;;;;;;5071750;28;20056;-52
2022/10/05 01:30:51;;;;;;;8.27;4.10;;;12.50;99.90;;;;;;5066584;28;20055;-52
2022/10/05 01:33:54;;;;;;;5.57;3.63;;;12.50;99.90;;;;;;5052965;28;20058;-51
2022/10/05 01:36:38;;;;;;;8.65;4.72;;;12.50;99.90;;;;;;5069253;28;20031;-51
2022/10/05 01:39:16;;;;;;;6.88;4.35;;;12.50;99.90;;;;;;5070951;28;20024;-52
2022/10/05 01:42:02;;;;;;;7.68;4.10;;;12.60;99.90;;;;;;5071965;28;20055;-51
2022/10/05 01:44:54;;;;;;;6.82;4.18;;;12.50;99.90;;;;;;5061382;28;20102;-50
2022/10/05 01:47:40;;;;;;;8.70;4.28;;;12.50;99.90;;;;;;5066566;28;20044;-51
2022/10/05 01:50:24;;;;;;;9.45;4.50;;;12.50;99.90;;;;;;5069704;28;20047;-51
2022/10/05 01:52:59;;;;;;;6.32;4.32;;;12.40;99.90;;;;;;5070669;28;20594;-53
2022/10/05 01:55:32;;;;;;;6.15;3.80;;;12.40;99.90;;;;;;5072228;28;20061;-51
2022/10/05 01:58:36;;;;;;;8.15;3.88;;;12.40;99.90;;;;;;5071504;28;20024;-50
2022/10/05 02:01:10;;;;;;;7.45;4.40;;;12.40;99.90;;;;;;4988580;28;20488;-52
2022/10/05 02:03:50;;;;;;;5.35;4.22;;;12.40;99.90;;;;;;5010738;28;20030;-54
2022/10/05 02:06:23;;;;;;;7.70;4.20;;;12.30;99.90;;;;;;5010245;28;20390;-50
2022/10/05 02:09:07;;;;;;;7.68;3.78;;;12.30;99.90;;;;;;5012969;28;20424;-52
2022/10/05 02:11:36;;;;;;;5.68;4.07;;;12.20;99.90;;;;;;4998077;28;20042;-52
2022/10/05 02:14:11;;;;;;;7.53;3.97;;;12.10;99.90;;;;;;5009148;28;20028;-50
2022/10/05 02:16:47;;;;;;;6.85;3.83;;;12.10;99.90;;;;;;5015208;28;21252;-54
2022/10/05 02:19:20;;;;;;;7.72;4.20;;;12.20;99.90;;;;;;4979011;28;20041;-52
2022/10/05 02:21:51;;;;;;;8.05;4.15;;;12.20;99.90;;;;;;5009749;28;20037;-51
2022/10/05 02:24:23;;;;;;;7.65;3.92;;;12.20;99.90;;;;;;5008870;28;20053;-53
2022/10/05 02:26:51;;;;;;;5.43;4.07;;;12.20;99.90;;;;;;5013366;28;20069;-50
2022/10/05 02:29:21;;;;;;;12.52;4.30;;;12.20;99.90;;;;;;5009751;28;20030;-54
2022/10/05 02:31:53;;;;;;;7.75;4.20;;;12.20;99.90;;;;;;5011616;28;20583;-52
2022/10/05 02:34:24;;;;;;;5.75;3.80;;;12.20;99.90;;;;;;5011786;28;20114;-49
2022/10/05 02:37:18;;;;;;;4.93;3.40;;;12.20;99.90;;;;;;5022332;28;20027;-52
2022/10/05 02:39:49;;;;;;;4.57;3.40;;;12.10;99.90;;;;;;5069556;28;20020;-50
2022/10/05 02:42:24;;;;;;;6.00;3.55;;;12.10;99.90;;;;;;5071776;28;20085;-51
2022/10/05 02:45:09;;;;;;;7.32;3.50;;;12.10;99.90;;;;;;5071269;28;20047;-51
2022/10/05 02:47:54;;;;;;;7.30;4.45;;;12.10;99.90;;;;;;5069263;28;20475;-51
2022/10/05 02:50:39;;;;;;;8.13;4.00;;;12.10;99.90;;;;;;5071717;28;20036;-50
2022/10/05 02:53:14;;;;;;;12.95;3.28;;;12.20;99.90;;;;;;5070513;28;20040;-51
2022/10/05 02:56:03;;;;;;;8.93;3.80;;;12.20;99.90;;;;;;5071369;28;20016;-51
2022/10/05 02:58:58;;;;;;;7.53;3.50;;;12.10;99.90;;;;;;5071308;28;20031;-51
2022/10/05 03:01:41;;;;;;;10.98;3.67;;;12.10;99.90;;;;;;4991528;28;20509;-50
2022/10/05 03:04:13;;;;;;;9.10;3.45;;;12.00;99.90;;;;;;5008469;28;20564;-51
2022/10/05 03:07:17;;;;;;;10.82;3.72;;;12.00;99.90;;;;;;5012591;28;20561;-51
2022/10/05 03:09:52;;;;;;;6.65;3.80;;;12.00;99.90;;;;;;4955201;28;20051;-50
2022/10/05 03:12:35;;;;;;;6.97;3.63;;;12.00;99.90;;;;;;4957993;28;20569;-50
2022/10/05 03:15:31;;;;;;;6.88;4.10;;;12.00;99.90;;;;;;4958377;28;20031;-49
2022/10/05 03:18:16;;;;;;;8.05;3.70;;;12.00;99.90;;;;;;4959920;28;20126;-51
2022/10/05 03:20:47;;;;;;;8.18;4.30;;;12.00;99.90;;;;;;4954012;28;20058;-51
2022/10/05 03:23:47;;;;;;;6.88;4.20;;;12.00;99.90;;;;;;4963822;28;20116;-50
2022/10/05 03:26:43;;;;;;;8.43;4.38;;;11.80;99.90;;;;;;4963662;28;20054;-52
2022/10/05 03:29:39;;;;;;;439.65;377.58;;;11.20;99.90;;;;;;4896098;29;20049;-51
2022/10/05 03:32:36;;;;;;;14.38;7.03;;;10.90;99.90;;;;;;4896337;29;20040;-50
2022/10/05 03:35:19;;;;;;;8.80;4.43;;;11.00;99.90;;;;;;4896963;29;20487;-52
2022/10/05 03:38:01;;;;;;;10.90;4.53;;;11.10;99.90;;;;;;4907135;29;20048;-49
2022/10/05 03:40:56;;;;;;;8.07;4.60;;;11.30;99.90;;;;;;4921925;29;20096;-49
2022/10/05 03:43:51;;;;;;;15.82;6.03;;;11.40;99.90;;;;;;4926294;29;20036;-52
2022/10/05 03:46:25;;;;;;;68.85;46.30;;;10.80;99.90;;;;;;4966077;28;20057;-50
2022/10/05 03:49:03;;;;;;;6.70;3.85;;;10.60;99.90;;;;;;4992871;28;20368;-51
2022/10/05 03:51:34;;;;;;;53.67;26.65;;;10.80;99.90;;;;;;4988366;28;20509;-50
2022/10/05 03:54:14;;;;;;;6.35;3.40;;;10.90;99.90;;;;;;4991235;28;20558;-52
2022/10/05 03:56:50;;;;;;;4.93;3.70;;;11.00;99.90;;;;;;4991863;28;20088;-52
2022/10/05 03:59:48;;;;;;;7.68;3.75;;;11.00;99.90;;;;;;4992262;28;20038;-50
2022/10/05 04:02:48;;;;;;;56.88;32.45;;;10.60;99.90;;;;;;4992021;28;20066;-51
2022/10/05 04:05:18;;;;;;;52.60;47.60;;;10.10;99.90;;;;;;5005761;28;20035;-50
2022/10/05 04:08:15;;;;;;;7.80;3.58;;;10.10;99.90;;;;;;5073557;28;20104;-52
2022/10/05 04:10:46;;;;;;;7.10;3.75;;;10.30;99.90;;;;;;5073666;28;20360;-50
2022/10/05 04:13:20;;;;;;;9.57;4.27;;;10.20;99.90;;;;;;5073177;28;20033;-52
2022/10/05 04:16:01;;;;;;;7.57;5.10;;;10.10;99.90;;;;;;5067864;28;20269;-50
2022/10/05 04:18:49;;;;;;;8.60;3.63;;;10.10;99.90;;;;;;5071725;28;20032;-51
2022/10/05 04:21:24;;;;;;;14.32;7.05;;;9.90;99.90;;;;;;5073560;28;20064;-51
2022/10/05 04:24:01;;;;;;;3.85;2.90;;;9.90;99.90;;;;;;5073620;28;20051;-51
2022/10/05 04:26:59;;;;;;;6.97;3.20;;;9.80;99.90;;;;;;5072843;28;20020;-50
2022/10/05 04:29:41;;;;;;;8.40;3.53;;;9.80;99.90;;;;;;5073486;28;20090;-51
2022/10/05 04:32:23;;;;;;;6.55;3.40;;;10.00;99.90;;;;;;5023464;28;20037;-52
2022/10/05 04:35:09;;;;;;;21.92;6.80;;;10.20;99.90;;;;;;5074039;28;20025;-52
2022/10/05 04:38:08;;;;;;;42.60;16.35;;;10.20;99.90;;;;;;5070241;28;20039;-50
2022/10/05 04:40:49;;;;;;;8.02;4.55;;;10.40;99.90;;;;;;5070313;28;20111;-50
2022/10/05 04:43:29;;;;;;;40.33;20.42;;;10.60;99.90;;;;;;5072143;28;20032;-52
2022/10/05 04:46:13;;;;;;;25.15;10.75;;;10.80;99.90;;;;;;5070111;28;20111;-50
2022/10/05 04:49:03;;;;;;;32.45;11.25;;;10.90;99.90;;;;;;5070427;28;20482;-51
2022/10/05 04:51:35;;;;;;;63.08;21.33;;;11.00;99.90;;;;;;5073209;28;20379;-52
2022/10/05 04:54:09;;;;;;;64.82;24.63;;;11.10;99.90;;;;;;5071182;28;20027;-49
2022/10/05 04:56:44;;;;;;;50.25;19.73;;;11.20;99.90;;;;;;5071910;28;20502;-52
2022/10/05 04:59:28;;;;;;;51.78;23.45;;;11.20;99.90;;;;;;5072833;28;20480;-50
2022/10/05 05:02:13;;;;;;;71.13;31.08;;;11.20;99.90;;;;;;5069763;28;20500;-49
2022/10/05 05:04:45;;;;;;;106.47;44.88;;;11.40;99.90;;;;;;5070403;28;20119;-49
2022/10/05 05:07:31;;;;;;;125.70;76.93;;;11.40;99.90;;;;;;5071746;28;20024;-49
2022/10/05 05:10:04;;;;;;;69.97;25.05;;;11.40;99.90;;;;;;5069425;28;20032;-51
2022/10/05 05:12:44;;;;;;;69.35;28.65;;;11.50;99.90;;;;;;5066281;28;20028;-50
2022/10/05 05:15:46;;;;;;;13.32;6.30;;;11.50;99.90;;;;;;5071619;28;20388;-50
2022/10/05 05:18:46;;;;;;;8.10;5.03;;;11.50;99.90;;;;;;5029317;28;20040;-51
2022/10/05 05:21:31;;;;;;;10.35;5.70;;;11.60;99.90;;;;;;4971068;28;20042;-50
2022/10/05 05:24:32;;;;;;;14.13;7.05;;;11.70;99.90;;;;;;4971401;28;20042;-50
2022/10/05 05:26:58;;;;;;;19.85;9.55;;;11.80;99.90;;;;;;4914926;29;20040;-51
2022/10/05 05:29:58;;;;;;;11.30;6.45;;;11.90;99.90;;;;;;4914346;29;20568;-49
2022/10/05 05:32:47;;;;;;;14.02;6.35;;;;;;;;;;4914178;29;20051;-50
2022/10/05 05:35:40;;;;;;;11.13;5.60;;;12.20;99.90;;;;;;4903110;29;20180;-52
2022/10/05 05:38:30;;;;;;;15.30;8.30;;;12.20;99.90;;;;;;4897375;29;20047;-52
2022/10/05 05:41:10;;;;;;;10.38;5.18;;;12.30;99.90;;;;;;4898283;29;20075;-52
2022/10/05 05:43:55;;;;;;;12.07;5.55;;;;;;;;;;4896614;29;20036;-51
2022/10/05 05:46:30;;;;;;;7.32;5.35;;;12.70;99.90;;;;;;4897974;29;20051;-50
2022/10/05 05:48:56;;;;;;;7.13;5.05;;;12.70;99.90;;;;;;4896941;29;20028;-49
2022/10/05 05:51:38;;;;;;;8.32;5.07;;;12.90;99.90;;;;;;4879774;29;20513;-50
2022/10/05 05:54:15;;;;;;;23.90;11.17;;;13.00;99.90;;;;;;4895620;29;20492;-51
2022/10/05 05:56:49;;;;;;;14.68;4.65;;;;;;;;;;4893003;29;20037;-49
2022/10/05 05:59:19;;;;;;;14.95;5.07;;;13.40;99.90;;;;;;4894881;29;20343;-50
2022/10/05 06:01:47;;;;;;;7.07;4.35;;;13.60;99.90;;;;;;4895629;29;20533;-52
2022/10/05 06:04:26;;;;;;;9.40;4.63;;;13.80;99.90;;;;;;4956128;28;20085;-51
2022/10/05 06:06:55;;;;;;;10.73;6.95;;;14.00;99.90;;;;;;4989496;28;20050;-51
2022/10/05 06:09:25;;;;;;;79.78;35.25;;;14.20;99.90;;;;;;4982469;28;20030;-51
2022/10/05 06:12:30;;;;;;;14.95;8.82;;;14.60;99.90;;;;;;5017606;28;20040;-49
2022/10/05 06:15:12;;;;;;;7.43;4.68;;;15.00;99.90;;;;;;4988990;28;20030;-49
2022/10/05 06:17:47;;;;;;;8.45;3.58;;;15.30;99.90;;;;;;4982212;28;20073;-50
2022/10/05 06:20:35;;;;;;;5.57;3.10;;;15.90;99.90;;;;;;4987834;28;20570;-49
2022/10/05 06:23:08;;;;;;;6.72;2.90;;;16.20;99.90;;;;;;4985360;28;20062;-50
2022/10/05 06:25:43;;;;;;;5.22;2.80;;;16.60;99.90;;;;;;4986675;28;20065;-54
2022/10/05 06:28:13;;;;;;;6.38;2.97;;;16.90;99.90;;;;;;4972020;28;20074;-51
2022/10/05 06:31:05;;;;;;;9.25;4.00;;;17.60;99.90;;;;;;4987334;28;20092;-52
2022/10/05 06:34:07;;;;;;;6.55;3.22;;;17.30;99.90;;;;;;4988240;28;20543;-52
2022/10/05 06:36:49;;;;;;;6.78;3.65;;;17.70;99.90;;;;;;4964652;28;20039;-49
2022/10/05 06:39:33;;;;;;;;;;;18.60;99.90;;;;;;4985781;28;20045;-51
2022/10/05 06:42:24;;;;;;;7.25;4.05;;;18.60;99.90;;;;;;4965648;28;19910;-51
2022/10/05 06:45:10;;;;;;;6.38;3.95;;;19.00;99.90;;;;;;4982551;28;20055;-52
2022/10/05 06:48:24;;;;;;;5.32;3.85;;;19.70;99.90;;;;;;4986961;28;20116;-50
2022/10/05 06:51:08;;;;;;;8.00;4.72;;;20.40;99.90;;;;;;4930850;28;20037;-51
2022/10/05 06:54:07;;;;;;;8.63;4.47;;;20.50;99.90;;;;;;5004106;28;20482;-50
2022/10/05 06:56:41;;;;;;;9.20;4.47;;;;;;;;;;5003337;28;20025;-53
2022/10/05 06:59:10;;;;;;;7.00;4.63;;;20.90;99.90;;;;;;5000076;28;20037;-50
2022/10/05 07:02:08;;;;;;;9.23;7.70;;;20.30;99.90;;;;;;4998103;28;20140;-52
2022/10/05 07:05:02;;;;;;;13.63;8.65;;;20.50;99.90;;;;;;5000602;28;20048;-48
2022/10/05 07:07:31;;;;;;;9.32;7.03;;;;;;;;;;5002715;28;20038;-51
2022/10/05 07:10:06;;;;;;;10.73;7.43;;;;;;;;;;4999397;28;20102;-49
2022/10/05 07:13:02;;;;;;;9.82;7.55;;;23.60;99.90;;;;;;4971290;28;20092;-51
2022/10/05 07:15:41;;;;;;;8.10;6.07;;;;;;;;;;4979834;28;20048;-47
2022/10/05 07:18:39;;;;;;;7.28;5.15;;;;;;;;;;4999396;28;20038;-51
2022/10/05 07:21:17;;;;;;;8.27;5.03;;;;;;;;;;4969796;28;20042;-51
2022/10/05 07:23:45;;;;;;;8.38;5.55;;;;;;;;;;4971753;28;20122;-49
2022/10/05 07:26:14;;;;;;;7.45;4.88;;;;;;;;;;4975315;28;20038;-52
2022/10/05 07:29:09;;;;;;;7.22;4.43;;;;;;;;;;5006102;28;20062;-47
2022/10/05 07:31:38;;;;;;;5.72;4.57;;;;;;;;;;5002945;28;20047;-48
2022/10/05 07:34:37;;;;;;;6.32;4.15;;;28.00;99.90;;;;;;5004147;28;20034;-48
2022/10/05 07:40:20;;;;;;;8.82;5.22;;;27.90;96.50;;;;;;5007858;28;20092;-49
2022/10/05 07:43:08;;;;;;;8.40;5.15;;;27.90;95.80;;;;;;5000971;28;20092;-50
2022/10/05 07:45:52;;;;;;;7.80;4.70;;;28.60;95.10;;;;;;5006730;28;20924;-49
2022/10/05 07:48:31;;;;;;;8.18;4.85;;;29.20;99.90;;;;;;5008627;28;20144;-49
2022/10/05 07:51:22;;;;;;;6.85;4.72;;;28.90;94.20;;;;;;5006279;28;20213;-51
2022/10/05 07:54:14;;;;;;;7.68;5.03;;;29.60;93.20;;;;;;5010099;28;20473;-51
2022/10/05 07:56:42;;;;;;;;;;;29.60;93.40;;;;;;5039088;28;20033;-49
2022/10/05 07:59:23;;;;;;;8.98;5.13;;;;;;;;;;5071884;28;19912;-50
2022/10/05 08:01:57;;;;;;;8.80;5.50;;;30.10;91.80;;;;;;5071122;28;20094;-50
2022/10/05 08:04:29;;;;;;;6.90;4.80;;;30.10;91.70;;;;;;5070297;28;20040;-49
2022/10/05 08:07:01;;;;;;;;;;;30.30;92.00;;;;;;5068228;28;20036;-51
2022/10/05 08:09:33;;;;;;;9.20;4.40;;;;;;;;;;5069866;28;19904;-51
2022/10/05 08:12:17;;;;;;;8.63;4.82;;;;;;;;;;5054329;28;20116;-50
2022/10/05 08:14:48;;;;;;;5.22;4.35;;;;;;;;;;5026634;28;20457;-49
2022/10/05 08:17:26;;;;;;;8.40;4.70;;;;;;;;;;5071555;28;20636;-50
2022/10/05 08:20:09;;;;;;;6.72;4.50;;;;;;;;;;5054479;28;20033;-50
2022/10/05 08:22:42;;;;;;;6.07;4.25;;;;;;;;;;5038384;28;20037;-50
2022/10/05 08:25:14;;;;;;;8.55;5.40;;;;;;;;;;5068912;28;20407;-48
2022/10/05 08:27:50;;;;;;;7.32;5.65;;;;;;;;;;5070554;28;20040;-49
2022/10/05 08:30:16;;;;;;;17.92;15.75;;;;;;;;;;5052470;28;20369;-49
2022/10/05 08:32:49;;;;;;;10.07;9.07;;;;;;;;;;5065840;28;20140;-51
2022/10/05 08:35:36;;;;;;;5.60;3.88;;;29.50;88.20;;;;;;5066468;28;20050;-50
2022/10/05 08:38:09;;;;;;;6.63;5.03;;;29.60;89.70;;;;;;5066277;28;20040;-50
2022/10/05 08:41:11;;;;;;;55.33;49.30;;;;;;;;;;5067184;28;20025;-50
2022/10/05 08:43:52;;;;;;;11.93;10.32;;;30.70;99.90;;;;;;5005452;28;20038;-49
2022/10/05 08:46:34;;;;;;;11.15;9.52;;;30.90;87.50;;;;;;5005698;28;20042;-49
2022/10/05 08:49:00;;;;;;;;;;;;;;;;;;4960585;28;20030;-51
2022/10/05 08:51:46;;;;;;;14.75;11.63;;;31.00;89.10;;;;;;4977920;28;20380;-50
2022/10/05 08:54:18;;;;;;;10.52;6.95;;;30.90;87.40;;;;;;5010059;28;20517;-50
2022/10/05 08:57:05;;;;;;;8.27;6.45;;;31.40;86.90;;;;;;5010751;28;20030;-51
2022/10/05 08:59:54;;;;;;;11.20;7.60;;;31.20;86.30;;;;;;5010575;28;20116;-49
2022/10/05 09:02:20;;;;;;;9.57;6.70;;;;;;;;;;5008687;28;20060;-51
2022/10/05 09:04:59;;;;;;;6.30;4.60;;;31.70;85.00;;;;;;5006493;28;20068;-51
2022/10/05 09:07:46;;;;;;;11.80;5.30;;;31.60;85.40;;;;;;5008959;28;20036;-50
2022/10/05 09:10:12;;;;;;;7.80;5.47;;;31.70;85.30;;;;;;5008438;28;20034;-51
2022/10/05 09:12:46;;;;;;;12.68;11.57;;;31.80;85.50;;;;;;5005970;28;20033;-52
2022/10/05 09:15:26;;;;;;;5.50;4.03;;;31.90;85.30;;;;;;5008137;28;20022;-51
2022/10/05 09:18:29;;;;;;;6.22;3.92;;;31.00;83.80;;;;;;5046213;28;20492;-49
2022/10/05 09:21:13;;;;;;;6.90;3.80;;;31.30;84.90;;;;;;5068796;28;20024;-50
2022/10/05 09:23:45;;;;;;;8.32;3.90;;;31.00;84.10;;;;;;5070704;28;20032;-50
2022/10/05 09:26:38;;;;;;;10.85;3.95;;;30.40;85.10;;;;;;5069135;28;20483;-50
2022/10/05 09:29:31;;;;;;;7.57;3.83;;;31.20;85.70;;;;;;5064215;28;20139;-50
2022/10/05 09:32:09;;;;;;;6.90;4.50;;;;;;;;;;5070953;28;20090;-51
2022/10/05 09:35:04;;;;;;;8.02;4.53;;;31.80;84.70;;;;;;5047665;28;20025;-51
2022/10/05 09:37:57;;;;;;;9.00;6.22;;;31.70;84.30;;;;;;4984130;28;20046;-50
2022/10/05 09:40:49;;;;;;;5.13;3.53;;;31.80;84.50;;;;;;4987978;28;20030;-52
2022/10/05 09:44:03;;;;;;;6.30;3.67;;;31.90;83.00;;;;;;4986059;28;20121;-49
2022/10/05 09:47:06;;;;;;;4.00;3.45;;;31.90;83.00;;;;;;4926741;29;20042;-51
2022/10/05 09:49:42;;;;;;;7.85;3.60;;;;;;;;;;4894453;29;20044;-50
2022/10/05 09:52:25;;;;;;;7.38;3.35;;;32.00;82.20;;;;;;4892963;29;20497;-52
2022/10/05 09:55:22;;;;;;;5.13;3.35;;;31.80;81.90;;;;;;4898350;29;20110;-51
2022/10/05 09:57:59;;;;;;;4.38;3.20;;;31.90;82.30;;;;;;4895464;29;20559;-50
2022/10/05 10:00:45;;;;;;;3.80;2.72;;;31.90;82.00;;;;;;4877682;29;20056;-50
2022/10/05 10:03:23;;;;;;;6.15;3.40;;;32.00;81.60;;;;;;4894957;29;20072;-50
2022/10/05 10:05:54;;;;;;;4.40;2.78;;;32.40;83.00;;;;;;4898476;29;20037;-52
2022/10/05 10:08:42;;;;;;;4.57;3.40;;;32.70;81.10;;;;;;4893576;29;20497;-52
2022/10/05 10:11:20;;;;;;;5.40;2.60;;;31.70;81.30;;;;;;4894693;29;20037;-49
2022/10/05 10:14:11;;;;;;;5.80;3.80;;;31.40;88.90;;;;;;4894961;29;20383;-50
2022/10/05 10:16:42;;;;;;;4.03;2.88;;;;;;;;;;4956340;28;20035;-52
2022/10/05 10:19:26;;;;;;;15.48;14.02;;;31.80;99.90;;;;;;4954812;28;20047;-51
2022/10/05 10:22:29;;;;;;;7.82;7.05;;;32.00;99.90;;;;;;5012655;28;20038;-50
2022/10/05 10:25:18;;;;;;;5.13;3.30;;;32.30;81.70;;;;;;5017835;28;20038;-53
2022/10/05 10:28:04;;;;;;;3.33;2.05;;;32.00;78.70;;;;;;5074057;28;20050;-51
2022/10/05 10:31:13;;;;;;;9.90;7.68;;;32.30;78.90;;;;;;5069346;28;20047;-51
2022/10/05 10:33:42;;;;;;;9.85;7.80;;;32.30;78.00;;;;;;4996337;28;20062;-50
2022/10/05 10:36:11;;;;;;;11.50;8.50;;;;;;;;;;5011444;28;20026;-49
2022/10/05 10:38:52;;;;;;;57.08;50.80;;;;;;;;;;5010347;28;20092;-44
2022/10/05 15:41:39;;;;;;;6.63;5.35;;;20.30;94.30;;;;;;5044537;28;20071;-52
2022/10/05 15:44:16;;;;;;;7.68;5.20;;;20.10;94.80;;;;;;5065831;28;20089;-53
2022/10/05 15:46:55;;;;;;;6.95;4.50;;;20.10;94.70;;;;;;5070165;28;20033;-53
2022/10/05 15:49:49;;;;;;;7.18;4.65;;;20.10;97.10;;;;;;5073607;28;20390;-52
2022/10/05 15:52:32;;;;;;;11.88;4.35;;;20.00;95.40;;;;;;5068200;28;20181;-51
2022/10/05 15:55:18;;;;;;;6.60;3.90;;;19.90;95.90;;;;;;5073426;28;20028;-55
2022/10/05 15:57:50;;;;;;;8.85;5.70;;;20.00;98.50;;;;;;5068679;28;20024;-54
2022/10/05 16:00:17;;;;;;;;;;;;;;;;;;5069125;28;20360;-55
2022/10/05 16:02:52;;;;;;;8.52;5.75;;;19.60;98.30;;;;;;5071551;28;19915;-54
2022/10/05 16:09:20;;;;;;;7.85;6.47;;;19.20;96.90;;;;;;5070304;28;20047;-56
2022/10/05 16:12:24;;;;;;;9.10;6.65;;;18.90;97.10;;;;;;4993301;28;20497;-52
2022/10/05 16:14:58;;;;;;;9.48;7.97;;;18.60;97.50;;;;;;4957262;28;20075;-53
2022/10/05 16:17:47;;;;;;;14.73;9.85;;;18.50;98.00;;;;;;4954513;28;20110;-58
2022/10/05 16:20:34;;;;;;;18.98;11.68;;;18.40;98.30;;;;;;4947728;28;20047;-57
2022/10/05 16:23:16;;;;;;;36.45;22.63;;;18.30;98.60;;;;;;4966022;28;20031;-54
2022/10/05 16:26:03;;;;;;;70.53;34.97;;;18.20;98.90;;;;;;4951070;28;20287;-57
2022/10/05 16:28:38;;;;;;;96.80;46.47;;;18.30;98.90;;;;;;4936134;29;20035;-57
2022/10/05 16:31:27;;;;;;;75.43;40.33;;;18.10;99.10;;;;;;4953617;28;20031;-53
2022/10/05 16:34:43;;;;;;;43.97;24.92;;;18.00;99.10;;;;;;4953826;28;20112;-51
2022/10/05 16:37:24;;;;;;;26.08;16.67;;;18.00;99.40;;;;;;4956453;28;20132;-52
2022/10/05 16:40:00;;;;;;;16.77;11.32;;;17.70;99.90;;;;;;4957957;28;20042;-58
2022/10/05 16:42:52;;;;;;;13.82;9.35;;;17.70;99.90;;;;;;4961189;28;20062;-60
2022/10/05 16:45:27;;;;;;;;;;;17.60;99.90;;;;;;4967136;28;20144;-53
2022/10/05 16:48:14;;;;;;;8.95;6.53;;;17.50;99.90;;;;;;5043131;28;19908;-54
2022/10/05 16:51:01;;;;;;;9.77;6.00;;;17.50;99.90;;;;;;5036924;28;20092;-53
2022/10/05 16:53:38;;;;;;;7.85;5.85;;;17.50;99.90;;;;;;5069201;28;20028;-49
2022/10/05 16:56:24;;;;;;;6.70;5.82;;;17.50;99.90;;;;;;5064920;28;20584;-51
2022/10/05 16:59:41;;;;;;;8.20;5.13;;;17.40;99.90;;;;;;5053826;28;20109;-51
2022/10/05 17:02:15;;;;;;;6.72;5.40;;;17.50;99.90;;;;;;5010582;28;20038;-56
2022/10/05 17:05:13;;;;;;;12.48;6.07;;;17.50;99.90;;;;;;5010123;28;20096;-58
2022/10/05 17:07:59;;;;;;;13.23;8.38;;;17.50;99.90;;;;;;4998447;28;20037;-55
2022/10/05 17:10:40;;;;;;;12.30;7.85;;;17.50;99.90;;;;;;5007721;28;20061;-58
2022/10/05 17:13:33;;;;;;;12.15;9.43;;;17.50;99.90;;;;;;5009735;28;20785;-53
2022/10/05 17:16:09;;;;;;;12.10;9.98;;;17.40;99.90;;;;;;4963383;28;20204;-58
2022/10/05 17:19:11;;;;;;;12.70;10.68;;;17.50;99.90;;;;;;5007460;28;20117;-58
2022/10/05 17:21:59;;;;;;;16.50;12.52;;;17.50;99.90;;;;;;5007812;28;20034;-57
2022/10/05 17:25:02;;;;;;;14.30;10.18;;;17.40;99.90;;;;;;5009161;28;20058;-57
2022/10/05 17:27:32;;;;;;;;;;;17.40;99.90;;;;;;5007417;28;20022;-55
2022/10/05 17:30:18;;;;;;;30.98;21.38;;;17.20;99.90;;;;;;4961016;28;19905;-57
2022/10/05 17:33:03;;;;;;;17.10;11.50;;;17.10;99.90;;;;;;5009403;28;20053;-58
2022/10/05 17:36:03;;;;;;;15.75;10.68;;;17.10;99.90;;;;;;5009867;28;20397;-58
2022/10/05 17:38:29;;;;;;;25.58;16.80;;;17.00;99.90;;;;;;5059163;28;20044;-56
2022/10/05 17:41:29;;;;;;;33.35;21.42;;;16.90;99.90;;;;;;5071607;28;20085;-58
2022/10/05 17:44:17;;;;;;;16.27;10.68;;;16.90;99.90;;;;;;5082338;28;20049;-58
2022/10/05 17:46:52;;;;;;;13.55;8.50;;;16.90;99.90;;;;;;5070364;28;20033;-56
2022/10/05 17:55:31;;;;;;;11.32;7.70;;;16.40;99.90;;;;;;5070865;28;20537;-58
2022/10/05 17:58:18;;;;;;;15.82;8.05;;;16.50;99.90;;;;;;5068493;28;20025;-58
2022/10/05 18:00:59;;;;;;;16.17;8.73;;;16.40;99.90;;;;;;5068164;28;20059;-55
2022/10/05 18:03:42;;;;;;;15.48;9.52;;;16.10;99.90;;;;;;5067331;28;20032;-57
2022/10/05 18:06:27;;;;;;;16.55;8.20;;;15.90;99.90;;;;;;5067637;28;20037;-58
2022/10/05 18:09:19;;;;;;;20.05;11.50;;;15.90;99.90;;;;;;5068784;28;20090;-58
2022/10/05 18:12:09;;;;;;;16.75;10.40;;;16.00;99.90;;;;;;5069404;28;20024;-55
2022/10/05 18:15:01;;;;;;;12.27;8.52;;;15.90;99.90;;;;;;5069200;28;20028;-56
2022/10/05 18:17:45;;;;;;;13.82;9.43;;;15.80;99.90;;;;;;5069710;28;20093;-57
2022/10/05 18:20:14;;;;;;;13.32;7.88;;;15.90;99.90;;;;;;5062891;28;20044;-57
2022/10/05 18:22:45;;;;;;;13.40;8.82;;;15.90;99.90;;;;;;5069655;28;20028;-56
2022/10/05 18:25:44;;;;;;;13.38;9.50;;;15.80;99.90;;;;;;5067952;28;20441;-57
2022/10/05 18:28:48;;;;;;;13.77;10.85;;;15.80;99.90;;;;;;5066999;28;20021;-55
2022/10/05 18:32:10;;;;;;;19.27;17.15;;;15.70;99.90;;;;;;5069278;28;20024;-56
2022/10/05 18:34:50;;;;;;;21.40;17.85;;;15.40;99.90;;;;;;5008715;28;20041;-55
2022/10/05 18:37:30;;;;;;;18.02;13.30;;;15.10;99.90;;;;;;5012347;28;20044;-55
2022/10/05 18:40:20;;;;;;;20.88;12.63;;;15.20;99.90;;;;;;5012053;28;20034;-55
2022/10/05 18:43:34;;;;;;;19.00;15.15;;;15.30;99.90;;;;;;5007540;28;20708;-55
2022/10/05 18:46:26;;;;;;;22.15;14.50;;;15.30;99.90;;;;;;4933837;29;20040;-56
2022/10/05 18:49:10;;;;;;;16.52;12.70;;;15.40;99.90;;;;;;4932587;29;20115;-56
2022/10/05 18:52:06;;;;;;;17.35;13.00;;;15.40;99.90;;;;;;4933237;29;20114;-55
2022/10/05 18:54:48;;;;;;;17.38;12.20;;;15.40;99.90;;;;;;4935110;29;20201;-56
2022/10/05 18:57:58;;;;;;;19.48;12.95;;;15.40;99.90;;;;;;4935805;29;20098;-56
2022/10/05 19:00:30;;;;;;;21.05;12.77;;;15.40;99.90;;;;;;4935438;29;20040;-55
2022/10/05 19:03:10;;;;;;;16.10;12.10;;;15.40;99.90;;;;;;4932709;29;20075;-56
2022/10/05 19:05:35;;;;;;;17.70;11.80;;;15.30;99.90;;;;;;4932900;29;20059;-55
2022/10/05 19:08:21;;;;;;;16.85;12.48;;;15.10;99.90;;;;;;4932893;29;20528;-55
2022/10/05 19:11:03;;;;;;;19.23;11.52;;;15.00;99.90;;;;;;4942798;28;20490;-55
2022/10/05 19:13:54;;;;;;;20.45;12.32;;;14.90;99.90;;;;;;4970009;28;20046;-56
2022/10/05 19:16:29;;;;;;;17.90;12.88;;;15.00;99.90;;;;;;4970936;28;20082;-54
2022/10/05 19:19:12;;;;;;;21.60;13.77;;;15.10;99.90;;;;;;4970510;28;21151;-55
2022/10/05 19:22:10;;;;;;;22.77;16.02;;;15.20;99.90;;;;;;5011913;28;20113;-55
2022/10/05 19:24:44;;;;;;;23.00;15.27;;;15.40;99.90;;;;;;5009735;28;20045;-55
2022/10/05 19:27:25;;;;;;;38.17;28.35;;;15.40;99.90;;;;;;5072523;28;20036;-55